sensor_id;sensor_type;location;lat;lon;timestamp;pressure;altitude;pressure_sealevel;temperature;humidity
21838;BME280;11081;45.946;6.140;2023-03-21T00:00:30;95369.50;;;8.81;81.58
21838;BME280;11081;45.946;6.140;2023-03-21T00:02:59;95366.28;;;8.79;81.17
21838;BME280;11081;45.946;6.140;2023-03-21T00:05:27;95361.50;;;8.76;81.33
21838;BME280;11081;45.946;6.140;2023-03-21T00:07:55;95359.69;;;8.70;81.43
21838;BME280;11081;45.946;6.140;2023-03-21T00:10:26;95357.13;;;8.63;81.83
21838;BME280;11081;45.946;6.140;2023-03-21T00:13:06;95355.50;;;8.62;81.82
21838;BME280;11081;45.946;6.140;2023-03-21T00:15:36;95359.53;;;8.58;82.05
21838;BME280;11081;45.946;6.140;2023-03-21T00:18:31;95354.91;;;8.53;82.27
21838;BME280;11081;45.946;6.140;2023-03-21T00:21:04;95356.34;;;8.56;82.29
21838;BME280;11081;45.946;6.140;2023-03-21T00:23:52;95354.31;;;8.51;82.19
21838;BME280;11081;45.946;6.140;2023-03-21T00:26:20;95352.31;;;8.47;82.72
21838;BME280;11081;45.946;6.140;2023-03-21T00:28:49;95362.75;;;8.40;82.22
21838;BME280;11081;45.946;6.140;2023-03-21T00:31:20;95349.16;;;8.38;82.38
21838;BME280;11081;45.946;6.140;2023-03-21T00:33:48;95353.16;;;8.34;82.74
21838;BME280;11081;45.946;6.140;2023-03-21T00:36:17;95354.34;;;8.38;83.15
21838;BME280;11081;45.946;6.140;2023-03-21T00:38:45;95346.56;;;8.38;82.72
21838;BME280;11081;45.946;6.140;2023-03-21T00:41:13;95347.56;;;8.37;82.36
21838;BME280;11081;45.946;6.140;2023-03-21T00:44:01;95357.34;;;8.35;82.53
21838;BME280;11081;45.946;6.140;2023-03-21T00:46:31;95344.69;;;8.32;82.87
21838;BME280;11081;45.946;6.140;2023-03-21T00:49:12;95342.91;;;8.26;82.78
21838;BME280;11081;45.946;6.140;2023-03-21T00:51:40;95349.53;;;8.22;83.19
21838;BME280;11081;45.946;6.140;2023-03-21T00:54:10;95347.53;;;8.24;83.24
21838;BME280;11081;45.946;6.140;2023-03-21T00:56:39;95345.50;;;8.26;83.20
21838;BME280;11081;45.946;6.140;2023-03-21T00:59:08;95349.50;;;8.29;82.79
21838;BME280;11081;45.946;6.140;2023-03-21T01:01:38;95347.13;;;8.27;82.82
21838;BME280;11081;45.946;6.140;2023-03-21T01:04:06;95347.53;;;8.24;83.58
21838;BME280;11081;45.946;6.140;2023-03-21T01:06:40;95342.72;;;8.21;83.43
21838;BME280;11081;45.946;6.140;2023-03-21T01:09:11;95345.91;;;8.23;83.17
21838;BME280;11081;45.946;6.140;2023-03-21T01:11:40;95338.72;;;8.25;83.22
21838;BME280;11081;45.946;6.140;2023-03-21T01:14:10;95338.31;;;8.28;82.77
21838;BME280;11081;45.946;6.140;2023-03-21T01:16:51;95339.72;;;8.24;83.21
21838;BME280;11081;45.946;6.140;2023-03-21T01:19:21;95340.72;;;8.23;83.61
21838;BME280;11081;45.946;6.140;2023-03-21T01:22:10;95340.13;;;8.14;84.05
21838;BME280;11081;45.946;6.140;2023-03-21T01:24:38;95337.53;;;8.21;83.62
21838;BME280;11081;45.946;6.140;2023-03-21T01:27:20;95333.94;;;8.22;83.64
21838;BME280;11081;45.946;6.140;2023-03-21T01:29:48;95325.53;;;8.20;83.14
21838;BME280;11081;45.946;6.140;2023-03-21T01:32:17;95328.34;;;8.18;83.07
21838;BME280;11081;45.946;6.140;2023-03-21T01:34:45;95325.94;;;8.17;83.26
21838;BME280;11081;45.946;6.140;2023-03-21T01:37:13;95335.94;;;8.20;82.94
21838;BME280;11081;45.946;6.140;2023-03-21T01:39:46;95323.53;;;8.22;83.24
21838;BME280;11081;45.946;6.140;2023-03-21T01:42:15;95329.53;;;8.16;83.62
21838;BME280;11081;45.946;6.140;2023-03-21T01:44:52;95337.94;;;8.18;83.85
21838;BME280;11081;45.946;6.140;2023-03-21T01:47:23;95317.53;;;8.21;82.85
21838;BME280;11081;45.946;6.140;2023-03-21T01:50:02;95318.31;;;8.22;83.16
21838;BME280;11081;45.946;6.140;2023-03-21T01:52:50;95326.94;;;8.16;83.30
21838;BME280;11081;45.946;6.140;2023-03-21T01:55:26;95318.75;;;8.12;83.58
21838;BME280;11081;45.946;6.140;2023-03-21T01:58:28;95319.13;;;8.03;83.89
21838;BME280;11081;45.946;6.140;2023-03-21T02:01:20;95323.13;;;7.99;84.05
21838;BME280;11081;45.946;6.140;2023-03-21T02:03:54;95316.72;;;8.01;84.15
21838;BME280;11081;45.946;6.140;2023-03-21T02:06:48;95315.34;;;7.99;83.88
21838;BME280;11081;45.946;6.140;2023-03-21T02:09:46;95311.16;;;7.98;84.23
21838;BME280;11081;45.946;6.140;2023-03-21T02:12:19;95307.94;;;7.95;84.30
21838;BME280;11081;45.946;6.140;2023-03-21T02:14:48;95298.34;;;7.96;84.78
21838;BME280;11081;45.946;6.140;2023-03-21T02:17:37;95297.97;;;7.92;84.66
21838;BME280;11081;45.946;6.140;2023-03-21T02:23:43;95293.94;;;7.90;85.40
21838;BME280;11081;45.946;6.140;2023-03-21T02:26:43;95290.75;;;7.94;84.67
21838;BME280;11081;45.946;6.140;2023-03-21T02:29:51;95288.34;;;8.00;84.18
21838;BME280;11081;45.946;6.140;2023-03-21T02:32:33;95300.34;;;8.01;84.17
21838;BME280;11081;45.946;6.140;2023-03-21T02:35:29;95292.34;;;7.95;83.80
21838;BME280;11081;45.946;6.140;2023-03-21T02:38:13;95293.13;;;7.89;84.56
21838;BME280;11081;45.946;6.140;2023-03-21T02:40:50;95293.53;;;7.86;84.25
21838;BME280;11081;45.946;6.140;2023-03-21T02:43:27;95293.13;;;7.89;84.15
21838;BME280;11081;45.946;6.140;2023-03-21T02:46:04;95285.97;;;7.91;84.02
21838;BME280;11081;45.946;6.140;2023-03-21T02:48:36;95283.94;;;7.87;83.78
21838;BME280;11081;45.946;6.140;2023-03-21T02:51:19;95284.75;;;7.87;84.25
21838;BME280;11081;45.946;6.140;2023-03-21T02:53:53;95284.34;;;7.84;84.48
21838;BME280;11081;45.946;6.140;2023-03-21T02:56:43;95287.16;;;7.82;84.80
21838;BME280;11081;45.946;6.140;2023-03-21T02:59:13;95288.75;;;7.83;84.91
21838;BME280;11081;45.946;6.140;2023-03-21T03:01:43;95282.34;;;7.79;84.61
21838;BME280;11081;45.946;6.140;2023-03-21T03:04:19;95274.56;;;7.73;84.79
21838;BME280;11081;45.946;6.140;2023-03-21T03:07:04;95277.16;;;7.66;85.42
21838;BME280;11081;45.946;6.140;2023-03-21T03:09:47;95280.34;;;7.68;85.20
21838;BME280;11081;45.946;6.140;2023-03-21T03:12:26;95275.94;;;7.69;84.90
21838;BME280;11081;45.946;6.140;2023-03-21T03:15:03;95276.75;;;7.62;85.21
21838;BME280;11081;45.946;6.140;2023-03-21T03:17:44;95268.97;;;7.56;85.57
21838;BME280;11081;45.946;6.140;2023-03-21T03:20:23;95270.38;;;7.52;85.71
21838;BME280;11081;45.946;6.140;2023-03-21T03:23:01;95264.75;;;7.55;85.75
21838;BME280;11081;45.946;6.140;2023-03-21T03:25:37;95267.97;;;7.57;85.63
21838;BME280;11081;45.946;6.140;2023-03-21T03:28:14;95273.16;;;7.57;85.51
21838;BME280;11081;45.946;6.140;2023-03-21T03:30:45;95268.97;;;7.56;85.88
21838;BME280;11081;45.946;6.140;2023-03-21T03:33:37;95276.75;;;7.56;85.82
21838;BME280;11081;45.946;6.140;2023-03-21T03:36:09;95274.75;;;7.58;85.47
21838;BME280;11081;45.946;6.140;2023-03-21T03:38:59;95277.75;;;7.55;85.82
21838;BME280;11081;45.946;6.140;2023-03-21T03:41:34;95279.16;;;7.51;85.66
21838;BME280;11081;45.946;6.140;2023-03-21T03:44:31;95268.75;;;7.51;86.27
21838;BME280;11081;45.946;6.140;2023-03-21T03:47:05;95281.94;;;7.56;85.69
21838;BME280;11081;45.946;6.140;2023-03-21T03:49:40;95283.75;;;7.62;85.35
21838;BME280;11081;45.946;6.140;2023-03-21T03:52:16;95282.16;;;7.61;85.32
21838;BME280;11081;45.946;6.140;2023-03-21T03:54:51;95284.34;;;7.57;85.55
21838;BME280;11081;45.946;6.140;2023-03-21T03:57:24;95278.34;;;7.57;85.70
21838;BME280;11081;45.946;6.140;2023-03-21T03:59:54;95285.16;;;7.58;85.93
21838;BME280;11081;45.946;6.140;2023-03-21T04:02:42;95287.13;;;7.56;85.96
21838;BME280;11081;45.946;6.140;2023-03-21T04:05:14;95277.16;;;7.53;86.08
21838;BME280;11081;45.946;6.140;2023-03-21T04:07:47;95280.34;;;7.55;86.18
21838;BME280;11081;45.946;6.140;2023-03-21T04:10:19;95277.34;;;7.58;85.50
21838;BME280;11081;45.946;6.140;2023-03-21T04:12:49;95276.34;;;7.59;85.88
21838;BME280;11081;45.946;6.140;2023-03-21T04:15:26;95279.94;;;7.58;85.92
21838;BME280;11081;45.946;6.140;2023-03-21T04:18:02;95276.75;;;7.56;85.57
21838;BME280;11081;45.946;6.140;2023-03-21T04:20:30;95279.16;;;7.51;86.05
21838;BME280;11081;45.946;6.140;2023-03-21T04:23:04;95289.13;;;7.54;86.26
21838;BME280;11081;45.946;6.140;2023-03-21T04:25:34;95287.13;;;7.56;85.56
21838;BME280;11081;45.946;6.140;2023-03-21T04:28:07;95282.34;;;7.53;85.75
21838;BME280;11081;45.946;6.140;2023-03-21T04:30:42;95277.56;;;7.50;86.00
21838;BME280;11081;45.946;6.140;2023-03-21T04:33:26;95279.16;;;7.51;85.98
21838;BME280;11081;45.946;6.140;2023-03-21T04:35:55;95273.56;;;7.54;85.88
21838;BME280;11081;45.946;6.140;2023-03-21T04:38:28;95273.97;;;7.51;86.08
21838;BME280;11081;45.946;6.140;2023-03-21T04:41:00;95270.94;;;7.47;86.52
21838;BME280;11081;45.946;6.140;2023-03-21T04:43:30;95272.75;;;7.53;86.12
21838;BME280;11081;45.946;6.140;2023-03-21T04:45:58;95274.16;;;7.56;85.89
21838;BME280;11081;45.946;6.140;2023-03-21T04:48:26;95275.56;;;7.52;85.68
21838;BME280;11081;45.946;6.140;2023-03-21T04:50:55;95280.13;;;7.37;86.25
21838;BME280;11081;45.946;6.140;2023-03-21T04:53:23;95276.31;;;7.39;86.33
21838;BME280;11081;45.946;6.140;2023-03-21T04:55:51;95274.72;;;7.45;86.26
21838;BME280;11081;45.946;6.140;2023-03-21T04:58:21;95277.31;;;7.45;85.93
21838;BME280;11081;45.946;6.140;2023-03-21T05:00:51;95278.31;;;7.30;85.79
21838;BME280;11081;45.946;6.140;2023-03-21T05:03:19;95276.72;;;7.29;86.38
21838;BME280;11081;45.946;6.140;2023-03-21T05:05:48;95276.31;;;7.32;86.29
21838;BME280;11081;45.946;6.140;2023-03-21T05:08:17;95270.72;;;7.36;86.37
21838;BME280;11081;45.946;6.140;2023-03-21T05:10:45;95277.53;;;7.37;86.25
21838;BME280;11081;45.946;6.140;2023-03-21T05:13:14;95272.72;;;7.33;86.62
21838;BME280;11081;45.946;6.140;2023-03-21T05:15:41;95280.72;;;7.32;86.70
21838;BME280;11081;45.946;6.140;2023-03-21T05:18:11;95276.91;;;7.34;86.34
21838;BME280;11081;45.946;6.140;2023-03-21T05:20:57;95277.53;;;7.30;86.54
21838;BME280;11081;45.946;6.140;2023-03-21T05:23:25;95274.13;;;7.29;86.30
21838;BME280;11081;45.946;6.140;2023-03-21T05:25:57;95281.28;;;7.27;86.83
21838;BME280;11081;45.946;6.140;2023-03-21T05:28:38;95279.09;;;7.24;86.47
21838;BME280;11081;45.946;6.140;2023-03-21T05:31:07;95281.88;;;7.23;86.85
21838;BME280;11081;45.946;6.140;2023-03-21T05:33:36;95282.69;;;7.23;86.37
21838;BME280;11081;45.946;6.140;2023-03-21T05:36:05;95282.69;;;7.23;86.49
21838;BME280;11081;45.946;6.140;2023-03-21T05:38:33;95287.88;;;7.23;87.06
21838;BME280;11081;45.946;6.140;2023-03-21T05:41:02;95290.47;;;7.23;86.53
21838;BME280;11081;45.946;6.140;2023-03-21T05:43:31;95294.66;;;7.24;86.81
21838;BME280;11081;45.946;6.140;2023-03-21T05:45:59;95284.28;;;7.24;86.54
21838;BME280;11081;45.946;6.140;2023-03-21T05:48:30;95294.25;;;7.27;86.74
21838;BME280;11081;45.946;6.140;2023-03-21T05:51:08;95292.66;;;7.26;86.21
21838;BME280;11081;45.946;6.140;2023-03-21T05:53:37;95289.84;;;7.21;86.07
21838;BME280;11081;45.946;6.140;2023-03-21T05:56:06;95301.25;;;7.20;86.26
21838;BME280;11081;45.946;6.140;2023-03-21T05:58:57;95303.84;;;7.20;86.42
21838;BME280;11081;45.946;6.140;2023-03-21T06:01:25;95311.03;;;7.25;86.03
21838;BME280;11081;45.946;6.140;2023-03-21T06:04:06;95313.06;;;7.29;85.72
21838;BME280;11081;45.946;6.140;2023-03-21T06:06:36;95314.25;;;7.33;85.82
21838;BME280;11081;45.946;6.140;2023-03-21T06:09:04;95314.66;;;7.30;85.86
21838;BME280;11081;45.946;6.140;2023-03-21T06:11:34;95319.22;;;7.28;86.21
21838;BME280;11081;45.946;6.140;2023-03-21T06:14:25;95321.41;;;7.25;86.43
21838;BME280;11081;45.946;6.140;2023-03-21T06:17:08;95315.03;;;7.27;86.30
21838;BME280;11081;45.946;6.140;2023-03-21T06:19:42;95315.47;;;7.31;86.40
21838;BME280;11081;45.946;6.140;2023-03-21T06:22:18;95319.84;;;7.30;86.73
21838;BME280;11081;45.946;6.140;2023-03-21T06:24:46;95317.47;;;7.36;86.32
21838;BME280;11081;45.946;6.140;2023-03-21T06:27:16;95317.06;;;7.39;86.58
21838;BME280;11081;45.946;6.140;2023-03-21T06:29:51;95321.47;;;7.45;86.37
21838;BME280;11081;45.946;6.140;2023-03-21T06:32:20;95314.69;;;7.50;86.42
21838;BME280;11081;45.946;6.140;2023-03-21T06:34:53;95312.50;;;7.54;85.99
21838;BME280;11081;45.946;6.140;2023-03-21T06:37:23;95319.91;;;7.57;86.29
21838;BME280;11081;45.946;6.140;2023-03-21T06:39:52;95318.69;;;7.59;86.32
21838;BME280;11081;45.946;6.140;2023-03-21T06:42:22;95317.50;;;7.62;86.63
21838;BME280;11081;45.946;6.140;2023-03-21T06:44:55;95326.31;;;7.74;86.22
21838;BME280;11081;45.946;6.140;2023-03-21T06:47:22;95326.31;;;7.81;85.84
21838;BME280;11081;45.946;6.140;2023-03-21T06:49:50;95326.31;;;7.87;85.73
21838;BME280;11081;45.946;6.140;2023-03-21T06:52:18;95330.75;;;7.93;85.52
21838;BME280;11081;45.946;6.140;2023-03-21T06:54:48;95330.34;;;7.97;85.81
21838;BME280;11081;45.946;6.140;2023-03-21T06:57:19;95327.13;;;8.01;86.00
21838;BME280;11081;45.946;6.140;2023-03-21T06:59:48;95334.31;;;7.99;85.37
21838;BME280;11081;45.946;6.140;2023-03-21T07:02:19;95331.53;;;8.01;85.64
21838;BME280;11081;45.946;6.140;2023-03-21T07:04:59;95324.53;;;7.94;86.44
21838;BME280;11081;45.946;6.140;2023-03-21T07:07:29;95328.72;;;8.02;85.79
21838;BME280;11081;45.946;6.140;2023-03-21T07:09:59;95332.91;;;8.10;84.90
21838;BME280;11081;45.946;6.140;2023-03-21T07:12:31;95331.53;;;8.14;84.74
21838;BME280;11081;45.946;6.140;2023-03-21T07:15:22;95331.72;;;8.06;85.51
21838;BME280;11081;45.946;6.140;2023-03-21T07:17:50;95325.94;;;8.04;85.21
21838;BME280;11081;45.946;6.140;2023-03-21T07:20:18;95321.50;;;8.11;85.27
21838;BME280;11081;45.946;6.140;2023-03-21T07:22:47;95323.91;;;8.32;84.23
21838;BME280;11081;45.946;6.140;2023-03-21T07:25:17;95319.53;;;8.39;84.12
21838;BME280;11081;45.946;6.140;2023-03-21T07:27:47;95322.94;;;8.40;84.72
21838;BME280;11081;45.946;6.140;2023-03-21T07:30:15;95315.53;;;8.43;84.38
21838;BME280;11081;45.946;6.140;2023-03-21T07:32:43;95323.94;;;8.45;83.96
21838;BME280;11081;45.946;6.140;2023-03-21T07:35:15;95321.91;;;8.47;84.30
21838;BME280;11081;45.946;6.140;2023-03-21T07:37:44;95329.91;;;8.52;84.31
21838;BME280;11081;45.946;6.140;2023-03-21T07:40:14;95323.91;;;8.59;83.90
21838;BME280;11081;45.946;6.140;2023-03-21T07:42:47;95319.06;;;8.75;82.61
21838;BME280;11081;45.946;6.140;2023-03-21T07:45:26;95324.44;;;8.74;83.04
21838;BME280;11081;45.946;6.140;2023-03-21T07:47:54;95327.47;;;8.71;82.56
21838;BME280;11081;45.946;6.140;2023-03-21T07:50:22;95334.66;;;8.82;81.91
21838;BME280;11081;45.946;6.140;2023-03-21T07:52:50;95336.59;;;8.93;81.93
21838;BME280;11081;45.946;6.140;2023-03-21T07:55:19;95329.34;;;9.08;81.20
21838;BME280;11081;45.946;6.140;2023-03-21T07:57:50;95334.94;;;9.19;80.92
21838;BME280;11081;45.946;6.140;2023-03-21T08:00:19;95334.50;;;9.22;80.84
21838;BME280;11081;45.946;6.140;2023-03-21T08:02:50;95338.53;;;9.18;81.22
21838;BME280;11081;45.946;6.140;2023-03-21T08:05:26;95332.94;;;9.14;81.24
21838;BME280;11081;45.946;6.140;2023-03-21T08:07:54;95325.91;;;9.14;81.57
21838;BME280;11081;45.946;6.140;2023-03-21T08:10:22;95334.03;;;9.38;80.82
21838;BME280;11081;45.946;6.140;2023-03-21T08:12:52;95329.53;;;9.58;79.64
21838;BME280;11081;45.946;6.140;2023-03-21T08:15:20;95332.63;;;9.73;79.14
21838;BME280;11081;45.946;6.140;2023-03-21T08:17:48;95337.75;;;9.87;77.98
21838;BME280;11081;45.946;6.140;2023-03-21T08:20:18;95339.34;;;9.88;78.31
21838;BME280;11081;45.946;6.140;2023-03-21T08:22:48;95347.28;;;9.99;78.30
21838;BME280;11081;45.946;6.140;2023-03-21T08:25:17;95334.63;;;10.03;77.86
21838;BME280;11081;45.946;6.140;2023-03-21T08:27:46;95333.19;;;10.07;78.15
21838;BME280;11081;45.946;6.140;2023-03-21T08:30:17;95331.16;;;10.09;77.26
21838;BME280;11081;45.946;6.140;2023-03-21T08:32:45;95330.59;;;10.07;77.80
21838;BME280;11081;45.946;6.140;2023-03-21T08:35:16;95327.44;;;9.98;77.68
21838;BME280;11081;45.946;6.140;2023-03-21T08:37:44;95329.66;;;9.95;77.77
21838;BME280;11081;45.946;6.140;2023-03-21T08:40:14;95319.56;;;10.05;77.50
21838;BME280;11081;45.946;6.140;2023-03-21T08:42:43;95325.22;;;10.02;78.25
21838;BME280;11081;45.946;6.140;2023-03-21T08:45:13;95322.44;;;9.97;78.32
21838;BME280;11081;45.946;6.140;2023-03-21T08:47:43;95328.88;;;9.94;78.48
21838;BME280;11081;45.946;6.140;2023-03-21T08:50:13;95324.50;;;9.88;79.45
21838;BME280;11081;45.946;6.140;2023-03-21T08:52:41;95324.44;;;9.95;79.34
21838;BME280;11081;45.946;6.140;2023-03-21T08:55:10;95324.81;;;9.98;78.61
21838;BME280;11081;45.946;6.140;2023-03-21T08:57:39;95328.44;;;9.97;78.76
21838;BME280;11081;45.946;6.140;2023-03-21T09:00:11;95323.44;;;9.96;77.39
21838;BME280;11081;45.946;6.140;2023-03-21T09:02:41;95320.16;;;10.07;77.20
21838;BME280;11081;45.946;6.140;2023-03-21T09:05:11;95316.56;;;10.33;75.77
21838;BME280;11081;45.946;6.140;2023-03-21T09:07:39;95325.94;;;10.59;75.73
21838;BME280;11081;45.946;6.140;2023-03-21T09:10:10;95319.13;;;10.58;75.82
21838;BME280;11081;45.946;6.140;2023-03-21T09:12:48;95320.56;;;10.54;75.91
21838;BME280;11081;45.946;6.140;2023-03-21T09:15:17;95314.06;;;10.63;75.72
21838;BME280;11081;45.946;6.140;2023-03-21T09:17:47;95308.25;;;10.61;74.86
21838;BME280;11081;45.946;6.140;2023-03-21T09:20:20;95313.41;;;10.67;74.06
21838;BME280;11081;45.946;6.140;2023-03-21T09:22:56;95317.41;;;10.70;74.42
21838;BME280;11081;45.946;6.140;2023-03-21T09:25:24;95315.81;;;10.69;74.90
21838;BME280;11081;45.946;6.140;2023-03-21T09:27:57;95319.28;;;10.81;73.84
21838;BME280;11081;45.946;6.140;2023-03-21T09:30:26;95315.06;;;10.98;73.16
21838;BME280;11081;45.946;6.140;2023-03-21T09:32:54;95321.31;;;11.16;72.52
21838;BME280;11081;45.946;6.140;2023-03-21T09:35:23;95317.53;;;11.12;71.90
21838;BME280;11081;45.946;6.140;2023-03-21T09:37:53;95315.94;;;11.11;71.41
21838;BME280;11081;45.946;6.140;2023-03-21T09:40:35;95314.22;;;11.05;70.61
21838;BME280;11081;45.946;6.140;2023-03-21T09:43:15;95315.50;;;11.14;71.19
21838;BME280;11081;45.946;6.140;2023-03-21T09:45:51;95302.44;;;11.14;71.08
21838;BME280;11081;45.946;6.140;2023-03-21T09:48:33;95310.50;;;11.12;73.05
21838;BME280;11081;45.946;6.140;2023-03-21T09:51:13;95312.75;;;11.27;71.08
21838;BME280;11081;45.946;6.140;2023-03-21T09:53:46;95296.16;;;11.33;70.35
21838;BME280;11081;45.946;6.140;2023-03-21T09:56:15;95297.16;;;11.50;69.71
21838;BME280;11081;45.946;6.140;2023-03-21T09:58:47;95292.50;;;11.52;69.21
21838;BME280;11081;45.946;6.140;2023-03-21T10:01:20;95296.94;;;11.64;68.83
21838;BME280;11081;45.946;6.140;2023-03-21T10:03:55;95300.59;;;11.63;68.56
21838;BME280;11081;45.946;6.140;2023-03-21T10:06:26;95296.94;;;11.64;68.06
21838;BME280;11081;45.946;6.140;2023-03-21T10:08:57;95294.03;;;11.72;68.13
21838;BME280;11081;45.946;6.140;2023-03-21T10:11:30;95290.13;;;11.63;nan
21838;BME280;11081;45.946;6.140;2023-03-21T10:14:02;95286.75;;;11.74;67.47
21838;BME280;11081;45.946;6.140;2023-03-21T10:16:34;95281.78;;;11.84;67.00
21838;BME280;11081;45.946;6.140;2023-03-21T10:19:09;95279.75;;;11.86;67.05
21838;BME280;11081;45.946;6.140;2023-03-21T10:21:41;95278.88;;;11.92;65.93
21838;BME280;11081;45.946;6.140;2023-03-21T10:24:31;95283.53;;;11.90;66.29
21838;BME280;11081;45.946;6.140;2023-03-21T10:27:01;95282.66;;;11.78;66.04
21838;BME280;11081;45.946;6.140;2023-03-21T10:29:33;95276.38;;;11.97;65.00
21838;BME280;11081;45.946;6.140;2023-03-21T10:32:04;95271.59;;;12.17;65.30
21838;BME280;11081;45.946;6.140;2023-03-21T10:34:37;95268.88;;;12.24;66.55
21838;BME280;11081;45.946;6.140;2023-03-21T10:37:11;95259.88;;;12.20;65.52
21838;BME280;11081;45.946;6.140;2023-03-21T10:39:41;95263.41;;;12.26;64.37
21838;BME280;11081;45.946;6.140;2023-03-21T10:42:17;95260.47;;;12.34;63.65
21838;BME280;11081;45.946;6.140;2023-03-21T10:44:47;95260.78;;;12.49;63.80
21838;BME280;11081;45.946;6.140;2023-03-21T10:47:19;95258.84;;;12.56;64.75
21838;BME280;11081;45.946;6.140;2023-03-21T10:49:47;95265.09;;;12.55;64.72
21838;BME280;11081;45.946;6.140;2023-03-21T10:52:36;95253.16;;;12.47;65.52
21838;BME280;11081;45.946;6.140;2023-03-21T10:55:16;95255.44;;;12.44;65.38
21838;BME280;11081;45.946;6.140;2023-03-21T10:57:44;95250.91;;;12.51;65.46
21838;BME280;11081;45.946;6.140;2023-03-21T11:00:18;95252.69;;;12.62;66.95
21838;BME280;11081;45.946;6.140;2023-03-21T11:02:49;95248.97;;;12.87;64.84
21838;BME280;11081;45.946;6.140;2023-03-21T11:05:21;95248.25;;;13.03;64.07
21838;BME280;11081;45.946;6.140;2023-03-21T11:07:58;95254.81;;;13.17;62.55
21838;BME280;11081;45.946;6.140;2023-03-21T11:10:29;95243.91;;;13.20;62.03
21838;BME280;11081;45.946;6.140;2023-03-21T11:13:03;95242.41;;;13.24;61.09
21838;BME280;11081;45.946;6.140;2023-03-21T11:15:39;95240.41;;;13.31;61.05
21838;BME280;11081;45.946;6.140;2023-03-21T11:18:17;95236.31;;;13.35;59.92
21838;BME280;11081;45.946;6.140;2023-03-21T11:20:51;95238.06;;;13.47;61.23
21838;BME280;11081;45.946;6.140;2023-03-21T11:23:25;95227.44;;;13.53;60.16
21838;BME280;11081;45.946;6.140;2023-03-21T11:25:54;95234.59;;;13.58;61.23
21838;BME280;11081;45.946;6.140;2023-03-21T11:28:25;95225.22;;;13.62;60.88
21838;BME280;11081;45.946;6.140;2023-03-21T11:31:00;95226.34;;;13.66;61.35
21838;BME280;11081;45.946;6.140;2023-03-21T11:33:32;95224.44;;;13.78;61.66
21838;BME280;11081;45.946;6.140;2023-03-21T11:36:03;95226.84;;;13.96;61.09
21838;BME280;11081;45.946;6.140;2023-03-21T11:38:36;95236.84;;;13.99;61.33
21838;BME280;11081;45.946;6.140;2023-03-21T11:41:05;95223.88;;;14.10;60.74
21838;BME280;11081;45.946;6.140;2023-03-21T11:43:35;95221.41;;;14.20;61.03
21838;BME280;11081;45.946;6.140;2023-03-21T11:46:08;95218.03;;;14.24;62.33
21838;BME280;11081;45.946;6.140;2023-03-21T11:48:39;95217.75;;;14.21;62.53
21838;BME280;11081;45.946;6.140;2023-03-21T11:51:17;95217.75;;;14.04;63.99
21838;BME280;11081;45.946;6.140;2023-03-21T11:53:55;95215.50;;;14.13;62.43
21838;BME280;11081;45.946;6.140;2023-03-21T11:56:28;95211.38;;;14.17;62.33
21838;BME280;11081;45.946;6.140;2023-03-21T11:59:10;95207.25;;;14.21;61.19
21838;BME280;11081;45.946;6.140;2023-03-21T12:01:51;95212.75;;;14.41;61.95
21838;BME280;11081;45.946;6.140;2023-03-21T12:04:39;95200.69;;;14.40;59.23
21838;BME280;11081;45.946;6.140;2023-03-21T12:10:24;95194.22;;;14.70;61.66
21838;BME280;11081;45.946;6.140;2023-03-21T12:13:01;95187.13;;;14.92;58.82
21838;BME280;11081;45.946;6.140;2023-03-21T12:15:35;95188.47;;;14.94;55.29
21838;BME280;11081;45.946;6.140;2023-03-21T12:18:28;95184.50;;;14.92;54.33
21838;BME280;11081;45.946;6.140;2023-03-21T12:21:03;95177.91;;;14.89;55.61
21838;BME280;11081;45.946;6.140;2023-03-21T12:23:49;95172.84;;;14.83;53.14
21838;BME280;11081;45.946;6.140;2023-03-21T12:26:24;95174.47;;;14.89;53.05
21838;BME280;11081;45.946;6.140;2023-03-21T12:32:01;95153.41;;;14.84;51.28
21838;BME280;11081;45.946;6.140;2023-03-21T12:34:49;95164.31;;;14.98;51.41
21838;BME280;11081;45.946;6.140;2023-03-21T12:37:31;95162.09;;;15.11;51.17
21838;BME280;11081;45.946;6.140;2023-03-21T12:40:11;95150.03;;;15.15;51.34
21838;BME280;11081;45.946;6.140;2023-03-21T12:45:49;95157.88;;;15.10;50.10
21838;BME280;11081;45.946;6.140;2023-03-21T12:48:23;95148.50;;;15.19;51.55
21838;BME280;11081;45.946;6.140;2023-03-21T12:50:56;95150.72;;;15.33;51.05
21838;BME280;11081;45.946;6.140;2023-03-21T12:53:48;95141.03;;;15.06;51.92
21838;BME280;11081;45.946;6.140;2023-03-21T12:56:21;95141.03;;;15.06;52.03
21838;BME280;11081;45.946;6.140;2023-03-21T12:58:55;95136.34;;;15.13;51.95
21838;BME280;11081;45.946;6.140;2023-03-21T13:01:27;95140.69;;;15.30;52.70
21838;BME280;11081;45.946;6.140;2023-03-21T13:04:07;95129.50;;;15.12;50.07
21838;BME280;11081;45.946;6.140;2023-03-21T13:06:36;95137.44;;;15.17;51.23
21838;BME280;11081;45.946;6.140;2023-03-21T13:09:10;95133.81;;;15.23;48.99
21838;BME280;11081;45.946;6.140;2023-03-21T13:11:43;95136.53;;;15.34;50.95
21838;BME280;11081;45.946;6.140;2023-03-21T13:14:15;95139.28;;;15.49;50.46
21838;BME280;11081;45.946;6.140;2023-03-21T13:16:51;95122.50;;;15.55;49.70
21838;BME280;11081;45.946;6.140;2023-03-21T13:19:26;95125.50;;;15.64;50.92
21838;BME280;11081;45.946;6.140;2023-03-21T13:22:05;95131.59;;;15.74;49.37
21838;BME280;11081;45.946;6.140;2023-03-21T13:24:38;95131.84;;;15.68;49.02
21838;BME280;11081;45.946;6.140;2023-03-21T13:27:18;95126.56;;;15.68;48.14
21838;BME280;11081;45.946;6.140;2023-03-21T13:29:52;95120.56;;;15.77;48.99
21838;BME280;11081;45.946;6.140;2023-03-21T13:32:27;95122.69;;;15.80;48.16
21838;BME280;11081;45.946;6.140;2023-03-21T13:34:58;95116.31;;;15.71;48.01
21838;BME280;11081;45.946;6.140;2023-03-21T13:37:30;95114.19;;;15.63;46.35
21838;BME280;11081;45.946;6.140;2023-03-21T13:40:00;95119.44;;;15.63;46.49
21838;BME280;11081;45.946;6.140;2023-03-21T13:42:41;95118.41;;;15.64;45.29
21838;BME280;11081;45.946;6.140;2023-03-21T13:45:20;95123.50;;;15.49;46.92
21838;BME280;11081;45.946;6.140;2023-03-21T13:47:54;95118.81;;;15.56;47.05
21838;BME280;11081;45.946;6.140;2023-03-21T13:56:19;95115.44;;;15.98;46.36
21838;BME280;11081;45.946;6.140;2023-03-21T13:58:52;95109.16;;;16.04;45.99
21838;BME280;11081;45.946;6.140;2023-03-21T14:01:26;95107.09;;;16.16;46.09